createdAt,value
2022-09-28T00:02:19.002Z,1.35
2022-09-28T00:07:20.811Z,1.30
2022-09-28T00:12:23.809Z,1.27
2022-09-28T00:17:26.464Z,1.60
2022-09-28T00:22:28.417Z,1.60
2022-09-28T00:27:30.044Z,1.45
2022-09-28T00:32:31.686Z,1.45
2022-09-28T00:37:33.690Z,1.70
2022-09-28T00:42:35.345Z,1.80
2022-09-28T00:47:51.911Z,1.65
2022-09-28T00:53:08.581Z,1.42
2022-09-28T00:58:14.161Z,1.30
2022-09-28T01:03:16.810Z,1.85
2022-09-28T01:08:21.165Z,1.08
2022-09-28T01:13:24.395Z,1.15
2022-09-28T01:18:40.801Z,1.33
2022-09-28T01:23:57.166Z,1.10
2022-09-28T01:29:19.108Z,1.00
2022-09-28T01:34:35.864Z,1.25
2022-09-28T01:39:41.753Z,0.93
2022-09-28T01:44:47.305Z,0.93
2022-09-28T01:50:16.031Z,1.20
2022-09-28T01:55:28.260Z,1.30
2022-09-28T02:00:30.430Z,1.10
2022-09-28T02:05:41.953Z,1.15
2022-09-28T02:11:13.133Z,1.10
2022-09-28T02:16:25.078Z,1.25
2022-09-28T02:21:35.808Z,1.67
2022-09-28T02:26:43.025Z,1.17
2022-09-28T02:31:44.741Z,1.40
2022-09-28T02:36:47.639Z,1.60
2022-09-28T02:42:14.162Z,1.08
2022-09-28T02:47:41.166Z,1.50
2022-09-28T02:53:21.983Z,1.40
2022-09-28T02:58:34.928Z,1.42
2022-09-28T03:03:50.613Z,2.63
2022-09-28T03:09:04.470Z,1.70
2022-09-28T03:14:06.885Z,1.50
2022-09-28T03:19:08.543Z,1.85
2022-09-28T03:24:11.044Z,1.60
2022-09-28T03:29:12.854Z,1.10
2022-09-28T03:34:14.527Z,1.10
2022-09-28T03:39:16.192Z,1.38
2022-09-28T03:44:17.882Z,1.52
2022-09-28T03:49:19.540Z,0.93
2022-09-28T03:54:21.150Z,1.05
2022-09-28T03:59:22.834Z,1.30
2022-09-28T04:04:24.503Z,1.70
2022-09-28T04:09:26.238Z,1.50
2022-09-28T04:14:28.446Z,2.30
2022-09-28T04:19:30.169Z,1.88
2022-09-28T04:24:31.831Z,1.63
2022-09-28T04:29:33.517Z,1.55
2022-09-28T04:34:37.221Z,2.22
2022-09-28T04:39:44.030Z,2.00
2022-09-28T04:44:49.143Z,2.03
2022-09-28T04:49:51.101Z,2.20
2022-09-28T04:54:52.785Z,1.80
2022-09-28T04:59:54.449Z,2.55
2022-09-28T05:04:56.468Z,2.33
2022-09-28T05:09:58.174Z,2.15
2022-09-28T05:15:00.557Z,2.47
2022-09-28T05:20:02.992Z,2.35
2022-09-28T05:25:04.949Z,2.70
2022-09-28T05:30:07.355Z,2.92
2022-09-28T05:35:11.061Z,2.90
2022-09-28T05:40:13.702Z,2.92
2022-09-28T05:45:15.711Z,3.22
2022-09-28T05:50:17.614Z,2.45
2022-09-28T05:55:19.266Z,2.75
2022-09-28T06:00:20.903Z,3.20
2022-09-28T06:05:22.836Z,2.88
2022-09-28T06:10:25.924Z,2.78
2022-09-28T06:15:30.351Z,2.97
2022-09-28T06:20:35.228Z,3.38
2022-09-28T06:25:37.235Z,3.08
2022-09-28T06:30:40.012Z,3.35
2022-09-28T06:35:42.429Z,3.97
2022-09-28T06:40:44.215Z,3.45
2022-09-28T06:45:51.656Z,3.50
2022-09-28T06:50:53.737Z,3.05
2022-09-28T06:55:56.850Z,3.40
2022-09-28T07:00:59.379Z,3.75
2022-09-28T07:06:02.337Z,4.40
2022-09-28T07:11:07.958Z,4.20
2022-09-28T07:16:09.677Z,4.60
2022-09-28T07:21:24.293Z,9.27
2022-09-28T07:26:28.700Z,4.70
2022-09-28T07:31:32.184Z,5.72
2022-09-28T07:36:35.074Z,4.30
2022-09-28T07:41:38.437Z,3.95
2022-09-28T07:46:41.000Z,4.07
2022-09-28T07:51:44.757Z,4.43
2022-09-28T07:56:46.394Z,3.40
2022-09-28T08:01:49.564Z,3.33
2022-09-28T08:06:51.209Z,3.33
2022-09-28T08:11:52.912Z,4.65
2022-09-28T08:16:54.568Z,2.78
2022-09-28T08:21:56.197Z,2.00
2022-09-28T08:26:58.968Z,2.10
2022-09-28T08:32:01.710Z,1.77
2022-09-28T08:37:05.019Z,1.48
2022-09-28T08:42:33.585Z,1.10
2022-09-28T08:48:04.293Z,1.48
2022-09-28T08:53:24.839Z,1.40
2022-09-28T08:58:30.422Z,1.35
2022-09-28T09:03:41.763Z,1.00
2022-09-28T09:09:04.012Z,1.10
2022-09-28T09:14:20.972Z,0.85
2022-09-28T09:19:55.239Z,0.70
2022-09-28T09:25:20.337Z,0.60
2022-09-28T09:30:22.522Z,0.60
2022-09-28T09:35:58.365Z,1.52
2022-09-28T09:41:35.279Z,0.60
2022-09-28T09:46:39.739Z,0.68
2022-09-28T09:51:48.147Z,0.50
2022-09-28T09:56:59.373Z,0.68
2022-09-28T10:02:11.855Z,0.50
2022-09-28T10:07:25.769Z,1.42
2022-09-28T10:12:28.650Z,0.80
2022-09-28T10:17:30.317Z,0.80
2022-09-28T10:22:33.048Z,0.50
2022-09-28T10:27:36.423Z,0.50
2022-09-28T10:32:41.190Z,0.50
2022-09-28T10:38:00.319Z,1.15
2022-09-28T10:43:40.934Z,0.70
2022-09-28T10:48:56.361Z,0.70
2022-09-28T10:54:02.977Z,0.65
2022-09-28T10:59:24.633Z,0.50
2022-09-28T11:04:29.424Z,0.60
2022-09-28T11:09:33.533Z,0.70
2022-09-28T11:14:42.177Z,0.90
2022-09-28T11:19:44.847Z,0.73
2022-09-28T11:24:47.634Z,1.00
2022-09-28T11:29:58.575Z,1.00
2022-09-28T11:35:00.701Z,1.17
2022-09-28T11:40:42.869Z,1.30
2022-09-28T11:46:10.453Z,1.27
2022-09-28T11:51:20.207Z,1.35
2022-09-28T11:56:35.171Z,1.10
2022-09-28T12:02:03.355Z,1.00
2022-09-28T12:07:35.429Z,1.33
2022-09-28T12:12:47.787Z,1.00
2022-09-28T12:18:06.357Z,1.27
2022-09-28T12:23:14.346Z,2.53
2022-09-28T12:28:27.380Z,2.10
2022-09-28T12:33:29.061Z,1.88
2022-09-28T12:39:35.824Z,1.55
2022-09-28T12:44:45.607Z,1.85
2022-09-28T12:50:38.081Z,1.60
2022-09-28T12:55:56.291Z,1.30
2022-09-28T13:01:16.978Z,1.40
2022-09-28T13:06:24.919Z,1.42
2022-09-28T13:11:34.161Z,1.20
2022-09-28T13:16:47.735Z,1.50
2022-09-28T13:22:16.612Z,2.28
2022-09-28T13:27:40.495Z,1.60
2022-09-28T13:32:43.615Z,1.80
2022-09-28T13:37:45.697Z,1.50
2022-09-28T13:42:53.066Z,1.60
2022-09-28T13:48:12.963Z,1.58
2022-09-28T13:53:32.157Z,1.77
2022-09-28T13:58:44.159Z,1.90
2022-09-28T14:04:12.592Z,2.92
2022-09-28T14:09:15.768Z,1.75
2022-09-28T14:14:17.402Z,1.65
2022-09-28T14:19:26.545Z,2.00
2022-09-28T14:24:34.179Z,1.80
2022-09-28T14:29:38.272Z,1.40
2022-09-28T14:34:48.129Z,1.40
2022-09-28T14:40:08.746Z,1.52
2022-09-28T14:45:10.453Z,1.52
2022-09-28T14:50:30.216Z,1.50
2022-09-28T14:55:48.049Z,2.10
2022-09-28T15:00:54.792Z,4.00
2022-09-28T15:05:56.600Z,4.00
2022-09-28T15:11:00.796Z,3.15
2022-09-28T15:16:11.354Z,2.17
2022-09-28T15:21:13.668Z,1.58
2022-09-28T15:26:28.819Z,1.60
2022-09-28T15:31:35.035Z,2.63
2022-09-28T15:36:46.372Z,1.90
2022-09-28T15:41:50.359Z,1.85
2022-09-28T15:47:06.759Z,1.80
2022-09-28T15:52:25.792Z,1.88
2022-09-28T15:57:45.679Z,1.70
2022-09-28T16:03:03.671Z,1.92
2022-09-28T16:08:05.924Z,2.80
2022-09-28T16:13:20.659Z,1.50
2022-09-28T16:18:23.541Z,2.20
2022-09-28T16:23:33.333Z,2.75
2022-09-28T16:28:35.045Z,2.30
2022-09-28T16:33:43.896Z,2.95
2022-09-28T16:38:46.551Z,2.47
2022-09-28T16:43:48.590Z,8.20
2022-09-28T16:48:50.695Z,5.38
2022-09-28T16:54:10.803Z,5.28
2022-09-28T16:59:18.994Z,4.50
2022-09-28T17:04:20.652Z,5.05
2022-09-28T17:09:23.128Z,6.72
2022-09-28T17:14:24.819Z,3.70
2022-09-28T17:19:28.602Z,4.65
2022-09-28T17:24:30.223Z,4.18
2022-09-28T17:29:32.576Z,4.07
2022-09-28T17:34:34.200Z,4.07
2022-09-28T17:39:35.909Z,4.70
2022-09-28T17:44:37.560Z,4.20
2022-09-28T17:49:40.029Z,5.50
2022-09-28T17:54:41.672Z,4.80
2022-09-28T17:59:43.286Z,6.65
2022-09-28T18:04:52.213Z,5.10
2022-09-28T18:09:56.686Z,4.72
2022-09-28T18:14:58.418Z,5.28
2022-09-28T18:20:00.145Z,4.55
2022-09-28T18:25:01.804Z,4.85
2022-09-28T18:30:04.866Z,4.70
2022-09-28T18:35:08.702Z,5.00
2022-09-28T18:40:13.294Z,5.45
2022-09-28T18:45:17.195Z,5.65
2022-09-28T18:50:18.932Z,4.97
2022-09-28T18:55:20.603Z,6.85
2022-09-28T19:00:22.238Z,6.47
2022-09-28T19:05:23.872Z,5.60
2022-09-28T19:10:25.850Z,6.15
2022-09-28T19:15:27.594Z,6.47
2022-09-28T19:20:29.334Z,6.40
2022-09-28T19:25:30.979Z,6.22
2022-09-28T19:30:32.804Z,7.07
2022-09-28T19:35:34.468Z,6.22
2022-09-28T19:40:36.989Z,6.93
2022-09-28T19:45:39.713Z,6.35
2022-09-28T19:50:41.558Z,6.35
2022-09-28T19:55:43.235Z,6.93
2022-09-28T20:00:44.867Z,5.88
2022-09-28T20:05:49.251Z,5.97
2022-09-28T20:10:54.898Z,5.82
2022-09-28T20:15:56.619Z,4.88
2022-09-28T20:21:06.491Z,4.72
2022-09-28T20:26:11.818Z,5.15
2022-09-28T20:31:20.306Z,4.80
2022-09-28T20:36:24.383Z,4.80
2022-09-28T20:41:27.234Z,4.47
2022-09-28T20:46:29.061Z,4.63
2022-09-28T20:51:31.082Z,4.20
2022-09-28T20:56:40.405Z,4.18
2022-09-28T21:01:42.117Z,3.80
2022-09-28T21:06:43.905Z,4.22
2022-09-28T21:11:46.335Z,5.95
2022-09-28T21:16:47.992Z,3.78
2022-09-28T21:21:50.237Z,4.18
2022-09-28T21:26:51.861Z,4.28
2022-09-28T21:31:53.482Z,4.40
2022-09-28T21:36:55.505Z,4.43
2022-09-28T21:41:57.185Z,4.18
2022-09-28T21:46:58.874Z,4.18
2022-09-28T21:52:01.972Z,4.00
2022-09-28T21:57:03.647Z,3.97
2022-09-28T22:02:06.596Z,4.10
2022-09-28T22:07:08.230Z,4.22
2022-09-28T22:12:09.872Z,4.25
2022-09-28T22:17:11.486Z,3.75
2022-09-28T22:22:13.147Z,3.95
2022-09-28T22:27:15.451Z,3.65
2022-09-28T22:32:17.081Z,3.75
2022-09-28T22:37:19.096Z,4.05
2022-09-28T22:42:21.649Z,3.90
2022-09-28T22:47:23.374Z,3.65
2022-09-28T22:52:25.206Z,3.67
2022-09-28T22:57:26.809Z,3.90
2022-09-28T23:02:28.458Z,4.40
2022-09-28T23:07:30.144Z,4.05
2022-09-28T23:12:33.297Z,4.25
2022-09-28T23:17:34.999Z,3.78
2022-09-28T23:22:36.657Z,3.88
2022-09-28T23:27:38.293Z,3.50
2022-09-28T23:32:39.984Z,3.72
2022-09-28T23:37:41.588Z,4.00
2022-09-28T23:42:43.239Z,3.75
2022-09-28T23:47:44.854Z,3.60
2022-09-28T23:52:48.217Z,3.90
2022-09-28T23:57:49.916Z,3.80
